createdAt,value
2022-10-22T00:00:25.890Z,9.80
2022-10-22T00:04:32.844Z,9.32
2022-10-22T00:08:37.992Z,5.43
2022-10-22T00:12:42.125Z,6.45
2022-10-22T00:16:44.956Z,6.57
2022-10-22T00:20:47.743Z,5.05
2022-10-22T00:24:50.454Z,12.73
2022-10-22T00:28:54.730Z,5.03
2022-10-22T00:32:57.561Z,3.60
2022-10-22T00:37:00.292Z,2.22
2022-10-22T00:41:03.008Z,4.53
2022-10-22T00:45:17.106Z,3.25
2022-10-22T00:49:19.919Z,3.13
2022-10-22T00:53:35.814Z,3.22
2022-10-22T00:57:38.796Z,3.80
2022-10-22T01:01:43.374Z,1.98
2022-10-22T01:05:55.188Z,2.35
2022-10-22T01:10:06.723Z,4.15
2022-10-22T01:14:18.384Z,1.88
2022-10-22T01:18:25.583Z,3.58
2022-10-22T01:22:33.302Z,4.43
2022-10-22T01:26:49.034Z,6.93
2022-10-22T01:30:56.826Z,2.25
2022-10-22T01:35:03.647Z,4.95
2022-10-22T01:39:06.863Z,5.70
2022-10-22T01:43:11.693Z,2.83
2022-10-22T01:47:28.390Z,5.13
2022-10-22T01:51:50.209Z,3.35
2022-10-22T01:56:10.901Z,3.38
2022-10-22T02:00:15.856Z,3.75
2022-10-22T02:04:23.795Z,6.18
2022-10-22T02:08:30.419Z,9.80
2022-10-22T02:12:34.699Z,3.47
2022-10-22T02:16:41.390Z,3.75
2022-10-22T02:20:45.633Z,2.15
2022-10-22T02:24:49.562Z,4.78
2022-10-22T02:29:00.731Z,4.60
2022-10-22T02:33:09.725Z,3.95
2022-10-22T02:37:14.736Z,1.50
2022-10-22T02:41:18.711Z,4.63
2022-10-22T02:45:22.164Z,2.90
2022-10-22T02:49:24.933Z,2.38
2022-10-22T02:53:29.052Z,1.77
2022-10-22T02:57:31.742Z,2.60
2022-10-22T03:01:34.478Z,2.33
2022-10-22T03:05:37.212Z,3.35
2022-10-22T03:09:41.454Z,5.70
2022-10-22T03:13:44.150Z,5.25
2022-10-22T03:17:46.819Z,1.00
2022-10-22T03:21:51.662Z,2.50
2022-10-22T03:25:55.903Z,2.42
2022-10-22T03:29:59.797Z,3.75
2022-10-22T03:34:02.474Z,1.25
2022-10-22T03:38:05.253Z,3.22
2022-10-22T03:42:09.822Z,2.33
2022-10-22T03:46:12.509Z,1.08
2022-10-22T03:50:15.170Z,1.50
2022-10-22T03:54:18.194Z,3.60
2022-10-22T03:58:22.286Z,1.88
2022-10-22T04:02:25.090Z,1.92
2022-10-22T04:06:30.002Z,1.90
2022-10-22T04:10:32.833Z,1.33
2022-10-22T04:14:36.910Z,1.77
2022-10-22T04:18:40.203Z,3.05
2022-10-22T04:22:43.083Z,4.00
2022-10-22T04:26:45.758Z,1.38
2022-10-22T04:30:49.793Z,1.75
2022-10-22T04:34:52.498Z,0.95
2022-10-22T04:38:56.792Z,1.80
2022-10-22T04:42:59.552Z,1.95
2022-10-22T04:47:03.688Z,5.30
2022-10-22T04:51:07.721Z,3.22
2022-10-22T04:55:10.663Z,1.67
2022-10-22T04:59:13.738Z,0.93
2022-10-22T05:03:17.792Z,2.42
2022-10-22T05:07:20.482Z,4.10
2022-10-22T05:11:24.480Z,1.98
2022-10-22T05:15:27.163Z,0.40
2022-10-22T05:19:32.251Z,0.75
2022-10-22T05:23:34.956Z,1.10
2022-10-22T05:27:37.861Z,0.93
2022-10-22T05:31:41.018Z,1.95
2022-10-22T05:35:46.845Z,0.20
2022-10-22T05:39:57.560Z,4.93
2022-10-22T05:44:12.266Z,0.10
2022-10-22T05:48:15.030Z,2.03
2022-10-22T05:52:19.082Z,4.78
2022-10-22T05:56:22.924Z,0.60
2022-10-22T06:00:25.659Z,0.52
2022-10-22T06:04:28.367Z,1.63
2022-10-22T06:08:32.842Z,1.33
2022-10-22T06:12:35.930Z,0.57
2022-10-22T06:16:39.175Z,0.20
2022-10-22T06:20:43.150Z,0.30
2022-10-22T06:24:47.231Z,4.05
2022-10-22T06:28:50.010Z,0.30
2022-10-22T06:32:52.812Z,0.45
2022-10-22T06:36:55.562Z,2.75
2022-10-22T06:41:03.983Z,0.63
2022-10-22T06:45:08.297Z,0.20
2022-10-22T06:49:13.375Z,0.30
2022-10-22T06:53:16.164Z,1.10
2022-10-22T06:57:20.275Z,0.30
2022-10-22T07:01:25.186Z,2.67
2022-10-22T07:05:27.937Z,0.30
2022-10-22T07:09:30.867Z,0.43
2022-10-22T07:13:35.455Z,0.20
2022-10-22T07:21:45.867Z,0.63
2022-10-22T07:25:48.749Z,0.65
2022-10-22T07:29:52.831Z,0.68
2022-10-22T07:33:55.576Z,0.50
2022-10-22T07:37:58.254Z,2.67
2022-10-22T07:42:00.947Z,1.85
2022-10-22T07:46:05.057Z,0.20
2022-10-22T07:50:08.335Z,0.60
2022-10-22T07:54:11.092Z,0.73
2022-10-22T07:58:13.799Z,4.00
2022-10-22T08:02:17.931Z,0.85
2022-10-22T08:06:20.674Z,0.60
2022-10-22T08:10:23.408Z,0.40
2022-10-22T08:14:26.133Z,0.88
2022-10-22T08:18:30.890Z,0.55
2022-10-22T08:22:33.596Z,1.23
2022-10-22T08:26:36.319Z,2.80
2022-10-22T08:30:40.221Z,1.58
2022-10-22T08:34:44.250Z,1.73
2022-10-22T08:38:46.930Z,1.25
2022-10-22T08:43:21.067Z,5.53
2022-10-22T08:47:39.827Z,1.90
2022-10-22T08:51:44.173Z,0.88
2022-10-22T08:55:46.915Z,0.80
2022-10-22T08:59:55.175Z,0.98
2022-10-22T09:04:00.889Z,1.02
2022-10-22T09:08:06.487Z,1.80
2022-10-22T09:12:19.435Z,0.82
2022-10-22T09:16:31.716Z,0.77
2022-10-22T09:20:39.858Z,2.95
2022-10-22T09:24:47.973Z,1.83
2022-10-22T09:28:52.108Z,5.22
2022-10-22T09:33:02.356Z,3.08
2022-10-22T09:37:07.458Z,1.92
2022-10-22T09:41:11.684Z,3.35
2022-10-22T09:45:20.855Z,5.18
2022-10-22T09:49:25.098Z,1.73
2022-10-22T09:53:30.925Z,2.25
2022-10-22T09:57:37.894Z,2.80
2022-10-22T10:01:44.407Z,2.05
2022-10-22T10:05:50.055Z,3.03
2022-10-22T10:09:53.817Z,2.20
2022-10-22T10:14:06.976Z,2.03
2022-10-22T10:18:18.831Z,4.53
2022-10-22T10:22:35.875Z,1.02
2022-10-22T10:26:42.987Z,3.60
2022-10-22T10:30:54.753Z,5.82
2022-10-22T10:35:10.419Z,1.65
2022-10-22T10:39:24.014Z,1.88
2022-10-22T10:43:33.860Z,3.00
2022-10-22T10:48:05.124Z,3.33
2022-10-22T10:52:18.884Z,6.00
2022-10-22T10:56:36.804Z,0.70
2022-10-22T11:00:49.388Z,1.98
2022-10-22T11:05:12.885Z,3.67
2022-10-22T11:09:25.581Z,0.98
2022-10-22T11:13:32.732Z,1.45
2022-10-22T11:17:41.100Z,0.70
2022-10-22T11:21:51.811Z,2.30
2022-10-22T11:25:54.656Z,0.63
2022-10-22T11:30:02.536Z,1.85
2022-10-22T11:34:32.189Z,5.07
2022-10-22T11:38:36.760Z,0.57
2022-10-22T11:42:43.260Z,0.50
2022-10-22T11:46:47.651Z,1.85
2022-10-22T11:50:56.624Z,1.27
2022-10-22T11:55:03.782Z,0.82
2022-10-22T11:59:35.525Z,2.72
2022-10-22T12:03:43.720Z,1.92
2022-10-22T12:07:57.005Z,2.65
2022-10-22T12:12:12.013Z,3.22
2022-10-22T12:16:15.502Z,2.28
2022-10-22T12:20:27.070Z,1.67
2022-10-22T12:24:33.941Z,2.65
2022-10-22T12:28:41.736Z,0.40
2022-10-22T12:32:44.542Z,1.33
2022-10-22T12:36:49.130Z,1.65
2022-10-22T12:40:55.077Z,2.55
2022-10-22T12:44:59.123Z,1.10
2022-10-22T12:49:03.703Z,6.18
2022-10-22T12:53:07.045Z,3.13
2022-10-22T12:57:14.925Z,3.00
2022-10-22T13:01:19.664Z,1.52
2022-10-22T13:05:27.138Z,1.60
2022-10-22T13:09:39.223Z,1.40
2022-10-22T13:13:45.508Z,3.67
2022-10-22T13:17:50.137Z,3.67
2022-10-22T13:21:54.112Z,4.32
2022-10-22T13:26:02.335Z,2.75
2022-10-22T13:30:18.557Z,2.65
2022-10-22T13:34:25.062Z,0.80
2022-10-22T13:38:29.165Z,2.72
2022-10-22T13:42:31.853Z,3.03
2022-10-22T13:46:40.459Z,2.50
2022-10-22T13:50:44.564Z,1.52
2022-10-22T13:54:47.236Z,2.40
2022-10-22T13:58:50.096Z,1.50
2022-10-22T14:02:55.351Z,4.78
2022-10-22T14:07:01.354Z,7.50
2022-10-22T14:11:06.706Z,2.75
2022-10-22T14:15:11.303Z,1.95
2022-10-22T14:19:17.442Z,1.92
2022-10-22T14:27:24.787Z,1.55
2022-10-22T14:31:28.338Z,3.15
2022-10-22T14:35:31.154Z,1.27
2022-10-22T14:39:35.200Z,2.90
2022-10-22T14:43:37.885Z,3.63
2022-10-22T14:47:40.637Z,1.48
2022-10-22T14:51:43.378Z,1.80
2022-10-22T14:55:49.128Z,6.53
2022-10-22T14:59:54.744Z,2.20
2022-10-22T15:03:57.496Z,2.03
2022-10-22T15:08:00.248Z,3.72
2022-10-22T15:12:04.748Z,2.63
2022-10-22T15:16:08.385Z,2.60
2022-10-22T15:20:11.165Z,1.60
2022-10-22T15:24:13.883Z,3.55
2022-10-22T15:28:17.995Z,6.13
2022-10-22T15:32:20.760Z,2.00
2022-10-22T15:36:23.463Z,6.32
2022-10-22T15:40:26.135Z,3.42
2022-10-22T15:44:31.815Z,2.00
2022-10-22T15:48:34.519Z,2.27
2022-10-22T15:52:37.252Z,4.00
2022-10-22T15:56:39.950Z,4.53
2022-10-22T16:00:44.033Z,2.78
2022-10-22T16:09:39.217Z,2.72
2022-10-22T16:13:41.919Z,2.92
2022-10-22T16:17:45.959Z,1.63
2022-10-22T16:21:51.141Z,4.88
2022-10-22T16:25:54.260Z,5.32
2022-10-22T16:29:56.977Z,14.70
2022-10-22T16:34:01.279Z,7.93
2022-10-22T16:38:04.005Z,8.75
2022-10-22T16:42:07.132Z,6.97
2022-10-22T16:46:09.980Z,13.48
2022-10-22T16:50:14.124Z,6.30
2022-10-22T16:54:16.926Z,8.60
2022-10-22T16:58:19.633Z,10.73
2022-10-22T17:02:22.402Z,12.70
2022-10-22T17:06:26.618Z,9.73
2022-10-22T17:10:29.334Z,9.88
2022-10-22T17:14:32.061Z,9.65
2022-10-22T17:18:40.165Z,15.75
2022-10-22T17:22:44.299Z,14.60
2022-10-22T17:26:47.715Z,9.40
2022-10-22T17:30:50.436Z,14.10
2022-10-22T17:34:53.295Z,22.45
2022-10-22T17:38:58.918Z,26.42
2022-10-22T17:43:01.692Z,18.00
2022-10-22T17:47:04.570Z,13.57
2022-10-22T17:51:07.877Z,19.13
2022-10-22T17:55:13.485Z,24.00
2022-10-22T17:59:17.799Z,13.43
2022-10-22T18:03:21.038Z,25.77
2022-10-22T18:07:23.735Z,7.90
2022-10-22T18:11:28.706Z,11.10
2022-10-22T18:15:33.405Z,8.05
2022-10-22T18:19:36.221Z,11.40
2022-10-22T18:23:38.898Z,22.48
2022-10-22T18:27:43.212Z,6.40
2022-10-22T18:31:46.492Z,5.57
2022-10-22T18:35:49.217Z,11.50
2022-10-22T18:39:51.957Z,10.30
2022-10-22T18:43:58.039Z,9.05
2022-10-22T18:48:00.774Z,31.23
2022-10-22T18:52:03.466Z,14.35
2022-10-22T18:56:07.559Z,28.40
2022-10-22T19:00:13.376Z,28.60
2022-10-22T19:04:16.317Z,12.52
2022-10-22T19:08:20.254Z,7.15
2022-10-22T19:12:22.942Z,9.13
2022-10-22T19:16:28.422Z,10.10
2022-10-22T19:20:31.208Z,17.38
2022-10-22T19:24:34.440Z,13.15
2022-10-22T19:28:38.003Z,9.20
2022-10-22T19:32:42.372Z,11.63
2022-10-22T19:36:45.256Z,12.10
2022-10-22T19:40:48.047Z,11.00
2022-10-22T19:44:50.754Z,11.65
2022-10-22T19:48:57.021Z,18.05
2022-10-22T19:53:01.418Z,6.10
2022-10-22T19:57:04.420Z,9.55
2022-10-22T20:01:08.415Z,7.78
2022-10-22T20:05:12.996Z,12.63
2022-10-22T20:09:15.788Z,8.20
2022-10-22T20:13:18.553Z,9.90
2022-10-22T20:17:21.235Z,16.95
2022-10-22T20:21:25.318Z,9.52
2022-10-22T20:25:28.027Z,7.80
2022-10-22T20:29:30.819Z,7.35
2022-10-22T20:33:33.522Z,12.32
2022-10-22T20:37:37.565Z,7.90
2022-10-22T20:41:40.662Z,4.65
2022-10-22T20:45:43.414Z,5.05
2022-10-22T20:49:46.395Z,7.85
2022-10-22T20:53:50.575Z,7.72
2022-10-22T20:57:53.410Z,6.25
2022-10-22T21:01:56.154Z,10.95
2022-10-22T21:05:58.839Z,5.05
2022-10-22T21:10:02.930Z,7.88
2022-10-22T21:14:06.511Z,5.38
2022-10-22T21:18:09.723Z,7.65
2022-10-22T21:22:12.431Z,6.88
2022-10-22T21:26:16.583Z,15.85
2022-10-22T21:30:19.344Z,8.13
2022-10-22T21:34:22.053Z,6.85
2022-10-22T21:38:26.166Z,6.18
2022-10-22T21:42:30.311Z,5.00
2022-10-22T21:46:33.083Z,10.50
2022-10-22T21:50:40.088Z,5.78
2022-10-22T21:54:42.847Z,8.27
2022-10-22T21:58:47.601Z,4.07
2022-10-22T22:02:50.283Z,5.30
2022-10-22T22:06:53.143Z,4.78
2022-10-22T22:11:02.372Z,4.45
2022-10-22T22:15:08.079Z,4.55
2022-10-22T22:19:11.248Z,3.70
2022-10-22T22:23:13.978Z,3.50
2022-10-22T22:27:17.352Z,3.67
2022-10-22T22:31:25.367Z,4.50
2022-10-22T22:35:28.790Z,2.95
2022-10-22T22:39:31.670Z,11.10
2022-10-22T22:43:34.467Z,7.75
2022-10-22T22:47:38.636Z,5.40
2022-10-22T22:51:41.531Z,7.72
2022-10-22T22:55:44.200Z,3.72
2022-10-22T22:59:50.198Z,6.40
2022-10-22T23:03:57.040Z,3.13
2022-10-22T23:08:00.313Z,2.30
2022-10-22T23:12:03.757Z,4.50
2022-10-22T23:16:07.590Z,4.60
2022-10-22T23:20:11.737Z,5.45
2022-10-22T23:24:16.931Z,3.35
2022-10-22T23:28:19.626Z,3.03
2022-10-22T23:32:22.351Z,5.32
2022-10-22T23:36:26.889Z,3.60
2022-10-22T23:40:29.582Z,7.57
2022-10-22T23:44:32.300Z,5.00
2022-10-22T23:48:35.305Z,3.40
2022-10-22T23:52:39.592Z,4.93
2022-10-22T23:56:42.831Z,9.52
